Bascom, Ohio
Current Conditions -  °F | °C
As of 2:53 PM on Sunday 23 Nov 2014 (Local Time) from KFDY Reporting Station
Overcast Overcast  
Wind Chill: 58°   Ceiling: 6500
Heat Index: 58°   Visibility: 10mi
Dew Point: 44°   Wind: 12mph
Humidity: 60%   Direction: 140°SE
Pressure: 29.7"   Gusts: NA
Location:  41.13°N, 83.29°W
Report Text: KFDY 231953Z AUTO 14010KT 10SM FEW045 OVC065 14/07 A2970 RMK AO2 SLP055 T01440067
Loading
Personal Weather Stations






























Interactive Weather Map New forecast layout! Learn more

10-Day Weather Forecast

Advertisements
Track Severe Weather on mobile